Terminal Aerodrome Forecast
Issued by NWS

Home | Current Version | Previous Version | Text Only | Print | Product List | Glossary On
Versions: 1 2 3 4 5 6 7 8 9 10 11 12 13 14 15 16
390
FTUS43 KPAH 222321
TAFCGI
TAF
KCGI 222321Z 2300/2324 00000KT P6SM SKC
     FM230600 00000KT 2SM BR BCFG SKC
     FM231300 15005KT P6SM BKN070=

USA.gov is the U.S. government's official web portal to all federal, state and local government web resources and services.